Time;durP1;ratioP1;P1;durP2;ratioP2;P2;SDS_P1;SDS_P2;PMS_P1;PMS_P2;Temp;Humidity;BMP_temperature;BMP_pressure;BME280_temperature;BME280_humidity;BME280_pressure;Samples;Min_cycle;Max_cycle;Signal;HPM_P1;HPM_P2
2021/06/27 00:00:13;;;;;;;2.58;2.35;;;15.20;99.90;;;;;;5028720;28;20190;-77
2021/06/27 00:02:39;;;;;;;2.90;2.67;;;15.20;99.90;;;;;;5029234;28;20175;-75
2021/06/27 00:05:08;;;;;;;3.42;3.10;;;15.20;99.90;;;;;;5029466;28;20186;-78
2021/06/27 00:07:34;;;;;;;3.33;2.88;;;;;;;;;;5027369;28;20229;-79
2021/06/27 00:10:00;;;;;;;3.45;3.03;;;14.80;99.90;;;;;;5028977;28;20596;-77
2021/06/27 00:12:26;;;;;;;2.97;2.67;;;14.70;99.90;;;;;;5030891;28;20198;-77
2021/06/27 00:14:51;;;;;;;2.65;2.45;;;14.60;99.90;;;;;;5029411;28;20195;-79
2021/06/27 00:17:18;;;;;;;4.03;2.92;;;14.70;99.90;;;;;;5029475;28;20276;-78
2021/06/27 00:19:43;;;;;;;3.72;2.70;;;14.60;99.90;;;;;;5030747;28;20179;-76
2021/06/27 00:22:09;;;;;;;3.13;2.83;;;14.50;99.90;;;;;;5029908;28;20254;-77
2021/06/27 00:24:34;;;;;;;3.45;2.83;;;14.60;99.90;;;;;;5030092;28;20201;-77
2021/06/27 00:27:00;;;;;;;3.65;2.78;;;14.50;99.90;;;;;;5031195;28;20237;-76
2021/06/27 00:29:25;;;;;;;4.07;3.42;;;14.50;99.90;;;;;;5029350;28;21310;-77
2021/06/27 00:31:51;;;;;;;3.22;2.92;;;14.50;99.90;;;;;;5031136;28;20367;-79
2021/06/27 00:34:17;;;;;;;3.03;2.35;;;14.60;99.90;;;;;;5030022;28;20183;-77
2021/06/27 00:36:42;;;;;;;3.38;2.88;;;14.60;99.90;;;;;;5030457;28;20217;-78
2021/06/27 00:39:08;;;;;;;3.10;2.80;;;14.60;99.90;;;;;;5030674;28;20214;-78
2021/06/27 00:41:34;;;;;;;2.38;2.17;;;14.60;99.90;;;;;;5030231;28;20233;-78
2021/06/27 00:43:59;;;;;;;3.22;2.72;;;14.60;99.90;;;;;;5030543;28;20210;-78
2021/06/27 00:46:25;;;;;;;3.78;2.70;;;14.60;99.90;;;;;;5029877;28;20249;-80
2021/06/27 00:48:51;;;;;;;2.58;2.33;;;14.60;99.90;;;;;;5030867;28;20298;-79
2021/06/27 00:51:16;;;;;;;2.90;2.10;;;14.60;99.90;;;;;;5028212;28;20203;-75
2021/06/27 00:53:42;;;;;;;3.17;2.42;;;14.60;99.90;;;;;;5030500;28;20198;-77
2021/06/27 00:56:08;;;;;;;3.00;2.70;;;14.60;99.90;;;;;;5029798;28;20333;-78
2021/06/27 00:58:35;;;;;;;3.13;2.80;;;14.60;99.90;;;;;;5030281;28;20215;-77
2021/06/27 01:01:07;;;;;;;2.25;2.05;;;14.60;99.90;;;;;;5029853;28;20546;-80
2021/06/27 01:03:33;;;;;;;2.80;2.55;;;14.60;99.90;;;;;;5031880;28;20218;-79
2021/06/27 01:05:59;;;;;;;2.30;1.90;;;14.50;99.90;;;;;;5034291;28;20198;-79
2021/06/27 01:08:24;;;;;;;3.58;2.10;;;14.50;99.90;;;;;;5036301;28;20190;-76
2021/06/27 01:10:51;;;;;;;3.03;2.20;;;14.60;99.90;;;;;;5035572;28;20202;-79
2021/06/27 01:13:18;;;;;;;2.63;1.88;;;14.70;99.90;;;;;;5035087;28;20236;-75
2021/06/27 01:15:44;;;;;;;2.47;1.85;;;14.60;99.90;;;;;;5036262;28;20179;-77
2021/06/27 01:18:10;;;;;;;2.03;1.85;;;14.60;99.90;;;;;;5036440;28;20213;-77
2021/06/27 01:20:38;;;;;;;2.38;2.08;;;14.60;99.90;;;;;;5036539;28;20186;-79
2021/06/27 01:23:14;;;;;;;2.53;1.83;;;14.70;99.90;;;;;;5036539;28;20188;-79
2021/06/27 01:25:45;;;;;;;2.55;2.22;;;14.70;99.90;;;;;;5035631;28;20325;-77
2021/06/27 01:28:12;;;;;;;2.55;2.20;;;14.60;99.90;;;;;;5036193;28;20220;-77
2021/06/27 01:30:39;;;;;;;2.20;2.00;;;14.70;99.90;;;;;;5037216;28;20210;-78
2021/06/27 01:33:11;;;;;;;2.33;2.10;;;14.60;99.90;;;;;;5036664;28;20313;-79
2021/06/27 01:35:37;;;;;;;2.05;1.80;;;14.60;99.90;;;;;;5036648;28;20277;-77
2021/06/27 01:38:04;;;;;;;3.35;2.00;;;14.60;99.90;;;;;;5037077;28;20250;-79
2021/06/27 01:40:31;;;;;;;2.33;2.10;;;14.60;99.90;;;;;;5034660;28;20267;-77
2021/06/27 01:43:24;;;;;;;2.08;1.88;;;14.50;99.90;;;;;;5037059;28;20217;-79
2021/06/27 01:45:56;;;;;;;2.33;2.13;;;14.50;99.90;;;;;;5032715;28;20317;-76
2021/06/27 01:48:21;;;;;;;2.05;1.85;;;14.40;99.90;;;;;;5035925;28;20183;-77
2021/06/27 01:50:50;;;;;;;2.40;2.10;;;14.50;99.90;;;;;;5036762;28;20252;-79
2021/06/27 01:53:18;;;;;;;2.15;2.00;;;14.50;99.90;;;;;;5035981;28;20182;-75
2021/06/27 01:55:46;;;;;;;2.95;2.28;;;14.50;99.90;;;;;;5036051;28;20193;-78
2021/06/27 01:58:11;;;;;;;3.03;2.13;;;14.50;99.90;;;;;;5037275;28;20202;-77
2021/06/27 02:00:38;;;;;;;3.47;1.63;;;14.50;99.90;;;;;;5036939;28;20253;-77
2021/06/27 02:03:04;;;;;;;2.75;2.20;;;14.40;99.90;;;;;;5035713;28;20190;-77
2021/06/27 02:05:31;;;;;;;2.58;2.25;;;14.50;99.90;;;;;;5036188;28;20174;-79
2021/06/27 02:08:00;;;;;;;3.08;2.42;;;14.50;99.90;;;;;;5035819;28;20190;-77
2021/06/27 02:10:28;;;;;;;3.55;2.00;;;14.50;99.90;;;;;;5035687;28;20831;-77
2021/06/27 02:12:55;;;;;;;2.22;2.03;;;14.40;99.90;;;;;;5035302;28;20187;-80
2021/06/27 02:15:21;;;;;;;3.13;2.40;;;14.50;99.90;;;;;;5032880;28;20186;-79
2021/06/27 02:18:28;;;;;;;3.13;2.53;;;14.40;99.90;;;;;;5033840;28;20215;-79
2021/06/27 02:20:56;;;;;;;2.97;2.22;;;14.30;99.90;;;;;;5032763;28;20210;-78
2021/06/27 02:23:22;;;;;;;2.20;1.88;;;14.30;99.90;;;;;;5033689;28;20187;-79
2021/06/27 02:25:48;;;;;;;2.65;2.10;;;14.20;99.90;;;;;;5031100;28;20696;-79
2021/06/27 02:28:13;;;;;;;2.90;1.83;;;14.10;99.90;;;;;;5033260;28;20183;-77
2021/06/27 02:30:39;;;;;;;5.80;2.45;;;14.10;99.90;;;;;;5033216;28;20191;-78
2021/06/27 02:33:05;;;;;;;3.50;2.97;;;14.10;99.90;;;;;;5032460;28;20198;-77
2021/06/27 02:35:31;;;;;;;3.10;2.53;;;14.10;99.90;;;;;;5031561;28;20202;-78
2021/06/27 02:37:57;;;;;;;3.08;2.53;;;14.10;99.90;;;;;;5032984;28;20207;-76
2021/06/27 02:40:23;;;;;;;3.10;2.78;;;14.10;99.90;;;;;;5032333;28;20175;-79
2021/06/27 02:42:49;;;;;;;3.30;2.78;;;14.00;99.90;;;;;;5033497;28;20187;-76
2021/06/27 02:45:15;;;;;;;3.17;2.88;;;13.90;99.90;;;;;;5032411;28;20179;-78
2021/06/27 02:47:41;;;;;;;2.83;2.63;;;13.80;99.90;;;;;;5032665;28;20222;-79
2021/06/27 02:50:12;;;;;;;3.03;2.60;;;13.80;99.90;;;;;;5031658;28;20518;-78
2021/06/27 02:52:39;;;;;;;2.85;2.60;;;13.90;99.90;;;;;;5029373;28;21251;-78
2021/06/27 02:55:06;;;;;;;3.20;2.83;;;14.00;99.90;;;;;;5030630;28;20226;-78
2021/06/27 02:57:32;;;;;;;3.20;2.33;;;13.80;99.90;;;;;;5029658;28;20349;-78
2021/06/27 02:59:58;;;;;;;3.30;2.65;;;13.80;99.90;;;;;;5029863;28;20631;-77
2021/06/27 03:02:24;;;;;;;2.55;2.35;;;13.70;99.90;;;;;;5031049;28;20185;-79
2021/06/27 03:04:49;;;;;;;3.10;2.80;;;13.60;99.90;;;;;;5030405;28;20269;-77
2021/06/27 03:07:15;;;;;;;3.17;2.53;;;13.60;99.90;;;;;;5029369;28;20328;-78
2021/06/27 03:09:40;;;;;;;2.85;2.20;;;13.70;99.90;;;;;;5030522;28;20181;-77
2021/06/27 03:12:06;;;;;;;2.22;2.00;;;13.60;99.90;;;;;;5030969;28;20278;-79
2021/06/27 03:14:32;;;;;;;3.15;2.35;;;13.60;99.90;;;;;;5030335;28;20190;-79
2021/06/27 03:16:57;;;;;;;2.80;2.38;;;13.60;99.90;;;;;;5029854;28;20249;-78
2021/06/27 03:19:23;;;;;;;3.17;2.40;;;13.70;99.90;;;;;;5029628;28;20233;-78
2021/06/27 03:21:48;;;;;;;2.75;2.47;;;13.70;99.90;;;;;;5030861;28;20190;-79
2021/06/27 03:24:14;;;;;;;3.78;2.30;;;13.70;99.90;;;;;;5030045;28;20645;-79
2021/06/27 03:26:41;;;;;;;3.05;2.28;;;13.80;99.90;;;;;;5030219;28;20218;-78
2021/06/27 03:29:07;;;;;;;6.10;3.08;;;13.80;99.90;;;;;;5030642;28;20197;-78
2021/06/27 03:31:32;;;;;;;2.63;2.33;;;13.90;99.90;;;;;;5030449;28;20893;-79
2021/06/27 03:33:58;;;;;;;4.82;2.75;;;13.90;99.90;;;;;;5029849;28;20187;-78
2021/06/27 03:36:24;;;;;;;2.92;2.40;;;14.10;99.90;;;;;;5029960;28;20648;-78
2021/06/27 03:39:04;;;;;;;3.78;2.38;;;14.00;99.90;;;;;;5027102;28;20229;-77
2021/06/27 03:41:35;;;;;;;3.28;2.78;;;14.10;99.90;;;;;;5026729;28;20725;-78
2021/06/27 03:44:01;;;;;;;5.53;2.92;;;14.10;99.90;;;;;;5026687;28;20170;-77
2021/06/27 03:46:27;;;;;;;3.13;2.70;;;14.10;99.90;;;;;;5026618;28;20218;-77
2021/06/27 03:48:52;;;;;;;3.33;2.60;;;14.10;99.90;;;;;;5025757;28;20283;-77
2021/06/27 03:51:18;;;;;;;3.95;2.63;;;14.20;99.90;;;;;;5026548;28;20187;-78
2021/06/27 03:53:44;;;;;;;6.03;2.85;;;14.20;99.90;;;;;;5026621;28;20187;-77
2021/06/27 03:56:09;;;;;;;3.30;2.70;;;14.30;99.90;;;;;;5026285;28;20582;-78
2021/06/27 03:58:35;;;;;;;3.50;2.85;;;14.30;99.90;;;;;;5025799;28;20742;-77
2021/06/27 04:01:01;;;;;;;3.70;3.08;;;14.30;99.90;;;;;;5026780;28;20313;-77
2021/06/27 04:03:26;;;;;;;2.35;2.03;;;14.30;99.90;;;;;;5026390;28;20191;-78
2021/06/27 04:05:52;;;;;;;3.13;2.83;;;14.40;99.90;;;;;;5026798;28;20203;-77
2021/06/27 04:08:17;;;;;;;4.20;2.60;;;14.50;99.90;;;;;;5026856;28;20320;-77
2021/06/27 04:10:43;;;;;;;2.85;2.55;;;14.50;99.90;;;;;;5027107;28;20240;-78
2021/06/27 04:13:09;;;;;;;3.50;2.60;;;14.50;99.90;;;;;;5026420;28;20183;-77
2021/06/27 04:15:34;;;;;;;3.83;2.75;;;14.50;99.90;;;;;;5025904;28;20232;-77
2021/06/27 04:18:00;;;;;;;4.60;3.33;;;14.50;99.90;;;;;;5025687;28;20241;-77
2021/06/27 04:20:25;;;;;;;4.43;3.10;;;14.60;99.90;;;;;;5026061;28;20645;-77
2021/06/27 04:22:51;;;;;;;4.47;2.47;;;14.60;99.90;;;;;;5026779;28;20190;-78
2021/06/27 04:25:17;;;;;;;4.07;2.78;;;14.80;99.90;;;;;;5026052;28;20225;-78
2021/06/27 04:27:42;;;;;;;3.05;2.25;;;15.60;99.90;;;;;;5027552;28;20579;-78
2021/06/27 04:30:09;;;;;;;3.25;2.67;;;16.80;99.90;;;;;;5026420;28;20214;-78
2021/06/27 04:32:35;;;;;;;2.67;2.40;;;17.90;99.90;;;;;;5027624;28;20261;-77
2021/06/27 04:35:01;;;;;;;2.78;2.08;;;19.00;99.90;;;;;;5026339;28;20241;-78
2021/06/27 04:37:27;;;;;;;3.55;2.15;;;20.00;99.90;;;;;;5026153;28;20198;-77
2021/06/27 04:39:53;;;;;;;2.53;2.08;;;20.40;99.90;;;;;;5026000;28;20290;-78
2021/06/27 04:42:18;;;;;;;3.20;2.47;;;21.30;99.90;;;;;;5026691;28;20190;-78
2021/06/27 04:44:44;;;;;;;2.50;2.13;;;22.00;99.90;;;;;;5027458;28;20182;-78
2021/06/27 04:47:10;;;;;;;2.85;2.08;;;22.80;99.90;;;;;;5026649;28;20211;-77
2021/06/27 04:49:40;;;;;;;3.28;2.38;;;23.30;99.90;;;;;;5027512;28;20183;-78
2021/06/27 04:52:08;;;;;;;3.80;2.42;;;23.50;99.90;;;;;;5029105;28;20935;-79
2021/06/27 04:54:34;;;;;;;2.72;2.13;;;23.80;99.90;;;;;;5044245;22;20305;-79
2021/06/27 04:56:59;;;;;;;3.55;2.17;;;23.90;99.90;;;;;;5040956;28;20301;-79
2021/06/27 04:59:25;;;;;;;2.78;2.45;;;24.20;99.90;;;;;;5038492;28;20836;-79
2021/06/27 05:01:50;;;;;;;3.25;2.13;;;24.50;99.90;;;;;;5040874;28;20265;-79
2021/06/27 05:04:16;;;;;;;3.15;2.58;;;24.80;99.90;;;;;;5040370;28;20236;-79
2021/06/27 05:06:41;;;;;;;3.95;2.90;;;25.10;99.90;;;;;;5039257;28;20205;-78
2021/06/27 05:09:07;;;;;;;3.13;2.45;;;25.00;99.90;;;;;;5037858;28;20183;-77
2021/06/27 05:11:33;;;;;;;2.88;2.58;;;24.80;99.90;;;;;;5037277;28;20187;-78
2021/06/27 05:13:59;;;;;;;2.40;2.15;;;25.40;99.90;;;;;;5036095;28;20191;-77
2021/06/27 05:16:24;;;;;;;2.28;1.85;;;25.50;99.90;;;;;;5036942;28;20212;-80
2021/06/27 05:18:50;;;;;;;2.67;2.22;;;25.90;99.90;;;;;;5054558;28;20281;-79
2021/06/27 05:21:15;;;;;;;2.28;2.08;;;25.80;99.90;;;;;;5036200;28;20239;-78
2021/06/27 05:23:41;;;;;;;2.35;2.05;;;26.00;99.90;;;;;;5035785;28;20237;-78
2021/06/27 05:26:07;;;;;;;2.20;2.00;;;26.40;99.90;;;;;;5034984;28;20238;-78
2021/06/27 05:28:32;;;;;;;2.53;2.33;;;26.50;99.90;;;;;;5034592;28;20564;-75
2021/06/27 05:30:58;;;;;;;3.20;2.47;;;26.50;99.90;;;;;;5036694;28;20305;-78
2021/06/27 05:33:24;;;;;;;2.60;2.33;;;26.50;99.90;;;;;;5035902;28;21145;-76
2021/06/27 05:35:49;;;;;;;2.47;2.28;;;26.50;99.90;;;;;;5038467;28;20206;-79
2021/06/27 05:38:15;;;;;;;2.63;2.42;;;26.70;99.90;;;;;;5037595;28;20818;-79
2021/06/27 05:40:40;;;;;;;2.40;2.20;;;26.90;99.90;;;;;;5038570;28;20194;-79
2021/06/27 05:43:06;;;;;;;2.60;2.40;;;27.30;99.90;;;;;;5036078;28;20190;-76
2021/06/27 05:45:32;;;;;;;2.72;2.42;;;26.80;99.90;;;;;;5037022;28;20333;-79
2021/06/27 05:47:57;;;;;;;3.65;2.45;;;26.60;99.90;;;;;;5033747;28;20187;-78
2021/06/27 05:50:23;;;;;;;2.78;2.50;;;26.90;99.90;;;;;;5037174;28;20178;-77
2021/06/27 05:52:48;;;;;;;2.38;2.17;;;27.10;99.90;;;;;;5039557;28;20734;-80
2021/06/27 05:55:14;;;;;;;2.63;2.30;;;27.10;99.90;;;;;;5039125;28;20238;-79
2021/06/27 05:57:40;;;;;;;2.35;2.15;;;26.70;99.90;;;;;;5040030;28;20214;-79
2021/06/27 06:00:06;;;;;;;2.33;2.13;;;26.50;99.90;;;;;;5040788;28;20194;-76
2021/06/27 06:02:32;;;;;;;2.58;2.28;;;26.80;99.90;;;;;;5041554;28;20312;-77
2021/06/27 06:04:57;;;;;;;2.65;2.38;;;26.90;99.90;;;;;;5036355;28;20293;-79
2021/06/27 06:07:23;;;;;;;1.80;1.70;;;27.30;99.90;;;;;;5039853;28;20205;-78
2021/06/27 06:09:48;;;;;;;2.17;1.98;;;27.40;99.90;;;;;;5040189;28;20190;-79
2021/06/27 06:12:14;;;;;;;2.33;2.08;;;27.70;99.90;;;;;;5038550;28;20197;-77
2021/06/27 06:14:40;;;;;;;2.45;2.08;;;27.90;99.90;;;;;;5042122;28;20665;-78
2021/06/27 06:17:05;;;;;;;2.00;1.90;;;27.70;99.90;;;;;;5041736;28;20284;-78
2021/06/27 06:19:31;;;;;;;2.22;2.03;;;27.80;99.90;;;;;;5040884;28;20736;-78
2021/06/27 06:21:57;;;;;;;2.38;2.17;;;28.10;99.90;;;;;;5039242;28;20196;-78
2021/06/27 06:24:23;;;;;;;2.10;1.92;;;28.20;99.90;;;;;;5036972;28;20675;-78
2021/06/27 06:26:49;;;;;;;2.40;2.20;;;27.70;99.90;;;;;;5038511;28;20206;-79
2021/06/27 06:29:15;;;;;;;2.20;2.00;;;28.10;99.90;;;;;;5039120;28;20191;-79
2021/06/27 06:31:41;;;;;;;2.10;1.90;;;28.20;99.90;;;;;;5042269;28;20197;-77
2021/06/27 06:34:06;;;;;;;2.20;2.00;;;28.10;99.90;;;;;;5037187;28;20179;-77
2021/06/27 06:36:32;;;;;;;1.98;1.88;;;27.90;99.90;;;;;;5041064;28;20215;-76
2021/06/27 06:38:58;;;;;;;1.77;1.67;;;27.60;99.90;;;;;;5039640;28;20482;-79
2021/06/27 06:41:23;;;;;;;2.55;1.70;;;27.90;99.90;;;;;;5038749;28;20179;-77
2021/06/27 06:43:49;;;;;;;2.42;1.95;;;27.50;99.90;;;;;;5041183;28;20459;-79
2021/06/27 06:46:15;;;;;;;2.22;2.00;;;27.20;99.90;;;;;;5039174;28;20271;-77
2021/06/27 06:48:41;;;;;;;1.88;1.65;;;26.60;99.90;;;;;;5043350;28;20716;-79
2021/06/27 06:51:07;;;;;;;1.40;1.20;;;25.90;99.90;;;;;;5039355;28;20191;-78
2021/06/27 06:53:32;;;;;;;1.50;1.40;;;25.10;99.90;;;;;;5034858;28;20575;-78
2021/06/27 06:55:58;;;;;;;1.50;1.40;;;25.00;99.90;;;;;;5037195;28;20222;-77
2021/06/27 06:58:28;;;;;;;1.90;1.52;;;24.50;99.90;;;;;;5034463;28;20221;-79
2021/06/27 07:00:54;;;;;;;1.63;1.52;;;24.70;99.90;;;;;;5037612;28;20601;-80
2021/06/27 07:03:20;;;;;;;1.10;1.00;;;24.80;99.90;;;;;;5039939;28;20186;-77
2021/06/27 07:05:45;;;;;;;1.27;1.17;;;24.50;99.90;;;;;;5040130;28;20672;-77
2021/06/27 07:08:11;;;;;;;1.42;1.30;;;24.40;99.90;;;;;;5039158;28;20187;-79
2021/06/27 07:10:37;;;;;;;1.58;1.23;;;24.20;99.90;;;;;;5037110;28;20201;-80
2021/06/27 07:13:02;;;;;;;2.50;1.30;;;24.20;99.90;;;;;;5037838;28;20273;-77
2021/06/27 07:15:28;;;;;;;1.38;1.20;;;23.90;99.90;;;;;;5038496;28;20182;-77
2021/06/27 07:17:54;;;;;;;1.55;1.30;;;23.80;99.90;;;;;;5038134;28;20210;-77
2021/06/27 07:20:19;;;;;;;1.17;1.08;;;23.70;99.90;;;;;;5039025;28;20181;-78
2021/06/27 07:22:45;;;;;;;2.50;1.30;;;23.90;99.90;;;;;;5036578;28;20815;-78
2021/06/27 07:25:11;;;;;;;1.63;1.35;;;23.70;99.90;;;;;;5036983;28;20241;-79
2021/06/27 07:27:37;;;;;;;3.47;1.52;;;23.90;99.90;;;;;;5035873;28;20224;-79
2021/06/27 07:30:05;;;;;;;1.35;1.20;;;24.20;99.90;;;;;;5036542;28;20648;-80
2021/06/27 07:32:31;;;;;;;1.23;1.13;;;24.50;99.90;;;;;;5035840;28;20582;-79
2021/06/27 07:34:57;;;;;;;1.15;1.05;;;24.60;99.90;;;;;;5032574;28;20182;-79
2021/06/27 07:37:22;;;;;;;1.45;1.25;;;24.70;99.90;;;;;;5033837;28;20202;-79
2021/06/27 07:39:48;;;;;;;1.20;1.08;;;24.40;99.90;;;;;;5032287;28;20187;-77
2021/06/27 07:42:13;;;;;;;1.20;1.10;;;24.30;99.90;;;;;;5035500;28;20273;-76
2021/06/27 07:44:39;;;;;;;1.10;1.00;;;24.50;99.90;;;;;;5034757;28;20649;-79
2021/06/27 07:47:04;;;;;;;0.82;0.82;;;24.80;99.90;;;;;;5032253;28;20261;-78
2021/06/27 07:49:30;;;;;;;1.45;1.00;;;24.90;99.90;;;;;;5035006;28;20182;-78
2021/06/27 07:51:56;;;;;;;1.45;1.00;;;24.90;99.90;;;;;;5032162;28;20190;-79
2021/06/27 07:54:21;;;;;;;1.55;0.90;;;25.20;99.90;;;;;;5032582;28;20182;-78
2021/06/27 07:56:47;;;;;;;1.30;1.20;;;25.40;99.90;;;;;;5034276;28;20614;-79
2021/06/27 07:59:13;;;;;;;1.67;1.30;;;25.40;99.90;;;;;;5034734;28;20855;-80
2021/06/27 08:01:39;;;;;;;1.40;1.17;;;25.50;99.90;;;;;;5035892;28;20186;-80
2021/06/27 08:04:04;;;;;;;1.40;1.17;;;25.60;99.90;;;;;;5035241;28;20178;-79
2021/06/27 08:06:31;;;;;;;1.42;0.90;;;25.70;99.90;;;;;;5035593;28;20202;-78
2021/06/27 08:08:57;;;;;;;1.40;1.30;;;25.70;99.90;;;;;;5037571;28;20549;-80
2021/06/27 08:11:22;;;;;;;1.30;1.00;;;26.00;99.90;;;;;;5040085;28;20214;-78
2021/06/27 08:13:48;;;;;;;1.23;1.10;;;26.00;99.90;;;;;;5036263;28;20189;-78
2021/06/27 08:16:14;;;;;;;1.35;1.25;;;26.00;99.90;;;;;;5036419;28;20260;-79
2021/06/27 08:18:39;;;;;;;1.30;1.20;;;25.80;99.90;;;;;;5037848;28;20214;-78
2021/06/27 08:21:05;;;;;;;1.30;1.20;;;25.90;99.90;;;;;;5037078;28;20205;-78
2021/06/27 08:23:30;;;;;;;1.45;1.35;;;25.90;99.90;;;;;;5037599;28;20683;-79
2021/06/27 08:25:56;;;;;;;1.92;1.30;;;25.90;99.90;;;;;;5036820;28;20276;-78
2021/06/27 08:28:22;;;;;;;1.35;1.25;;;26.00;99.90;;;;;;5034815;28;20182;-79
2021/06/27 08:30:47;;;;;;;1.40;1.30;;;26.00;99.90;;;;;;5036868;28;20198;-81
2021/06/27 08:33:13;;;;;;;1.30;1.20;;;25.80;99.90;;;;;;5035000;28;20190;-78
2021/06/27 08:35:40;;;;;;;2.22;1.40;;;26.10;99.90;;;;;;5035729;28;20182;-77
2021/06/27 08:38:06;;;;;;;1.00;1.00;;;26.30;99.90;;;;;;5035776;28;20241;-76
2021/06/27 08:40:31;;;;;;;1.50;1.38;;;26.00;99.90;;;;;;5032378;28;20266;-76
2021/06/27 08:42:59;;;;;;;1.50;1.40;;;26.10;99.90;;;;;;5031465;28;20183;-77
2021/06/27 08:45:26;;;;;;;1.40;1.30;;;26.30;99.90;;;;;;5030353;28;20175;-78
2021/06/27 08:47:53;;;;;;;1.80;1.58;;;26.60;99.90;;;;;;5032694;28;20249;-77
2021/06/27 08:50:21;;;;;;;2.10;1.50;;;26.60;99.90;;;;;;5034110;28;20236;-78
2021/06/27 08:52:47;;;;;;;1.52;1.40;;;26.70;99.90;;;;;;5033085;28;20186;-79
2021/06/27 08:55:14;;;;;;;2.03;1.80;;;26.90;99.90;;;;;;5033519;28;20217;-76
2021/06/27 08:57:40;;;;;;;1.65;1.55;;;27.00;99.90;;;;;;5034602;28;20706;-76
2021/06/27 09:00:08;;;;;;;2.08;1.90;;;27.00;99.90;;;;;;5033312;28;20229;-76
2021/06/27 09:02:34;;;;;;;2.08;1.88;;;27.20;99.90;;;;;;5034009;28;20191;-77
2021/06/27 09:05:00;;;;;;;2.00;1.90;;;26.90;98.20;;;;;;5033898;28;20186;-76
2021/06/27 09:07:30;;;;;;;2.83;1.65;;;27.10;99.70;;;;;;5035530;28;20392;-77
2021/06/27 09:10:07;;;;;;;1.80;1.70;;;27.10;99.00;;;;;;5033473;28;20182;-76
2021/06/27 09:12:56;;;;;;;2.13;1.92;;;27.00;98.50;;;;;;5032261;28;21132;-77
2021/06/27 09:15:50;;;;;;;2.13;1.92;;;27.30;99.10;;;;;;5031684;28;20241;-76
2021/06/27 09:18:16;;;;;;;1.63;1.52;;;27.70;98.60;;;;;;5031415;28;20205;-79
2021/06/27 09:20:50;;;;;;;1.83;1.73;;;28.00;99.00;;;;;;5033898;28;20807;-77
2021/06/27 09:23:18;;;;;;;1.83;1.73;;;27.30;97.10;;;;;;5033283;28;20856;-79
2021/06/27 09:25:45;;;;;;;1.77;1.67;;;27.40;96.50;;;;;;5036456;28;20181;-77
2021/06/27 09:28:18;;;;;;;1.98;1.60;;;27.70;98.30;;;;;;5037399;28;20268;-78
2021/06/27 09:30:49;;;;;;;1.75;1.65;;;28.10;96.40;;;;;;5037213;28;20193;-77
2021/06/27 09:33:17;;;;;;;2.28;2.08;;;28.60;96.50;;;;;;5038199;28;20547;-77
2021/06/27 09:35:59;;;;;;;1.85;1.52;;;28.80;95.60;;;;;;5036835;28;20185;-77
2021/06/27 09:38:48;;;;;;;1.90;1.80;;;28.80;95.50;;;;;;5035775;28;20206;-78
2021/06/27 09:41:21;;;;;;;1.70;1.60;;;29.00;95.80;;;;;;5040144;28;20190;-80
2021/06/27 09:43:57;;;;;;;1.92;1.77;;;29.40;94.10;;;;;;5038621;28;20170;-76
2021/06/27 09:46:38;;;;;;;1.77;1.67;;;29.20;93.60;;;;;;5038638;28;20265;-78
2021/06/27 09:49:07;;;;;;;1.90;1.80;;;29.00;93.80;;;;;;5040740;28;20182;-77
2021/06/27 09:51:34;;;;;;;1.75;1.65;;;28.60;94.30;;;;;;5040441;28;20194;-79
2021/06/27 09:54:00;;;;;;;1.75;1.65;;;28.60;94.60;;;;;;5038958;28;20179;-77
2021/06/27 09:56:26;;;;;;;1.65;1.55;;;28.10;95.00;;;;;;5040626;28;20241;-78
2021/06/27 09:59:01;;;;;;;1.88;1.77;;;28.30;96.30;;;;;;5039570;28;20756;-77
2021/06/27 10:01:29;;;;;;;1.70;1.60;;;28.70;96.00;;;;;;5056482;28;20182;-77
2021/06/27 10:03:56;;;;;;;1.77;1.67;;;28.40;94.20;;;;;;5042046;28;20185;-77
2021/06/27 10:06:24;;;;;;;1.73;1.63;;;28.60;95.70;;;;;;5105058;22;20574;-77
2021/06/27 10:08:50;;;;;;;2.28;2.08;;;29.00;95.10;;;;;;5035399;28;20235;-78
2021/06/27 10:11:22;;;;;;;1.73;1.63;;;29.10;95.30;;;;;;5037585;28;20198;-77
2021/06/27 10:13:52;;;;;;;1.65;1.55;;;29.30;95.10;;;;;;5038892;28;20206;-80
2021/06/27 10:16:33;;;;;;;3.13;2.22;;;29.50;94.10;;;;;;5043947;28;20211;-79
2021/06/27 10:19:01;;;;;;;1.80;1.70;;;29.50;91.80;;;;;;5040825;28;20211;-79
2021/06/27 10:21:28;;;;;;;1.77;1.67;;;29.30;92.50;;;;;;5041378;28;20200;-80
2021/06/27 10:23:54;;;;;;;1.75;1.65;;;29.70;91.90;;;;;;5039734;28;20266;-79
2021/06/27 10:26:22;;;;;;;1.90;1.80;;;29.70;91.20;;;;;;5041330;28;20225;-77
2021/06/27 10:28:49;;;;;;;1.88;1.60;;;29.70;90.70;;;;;;5042723;28;20212;-76
2021/06/27 10:31:17;;;;;;;1.90;1.80;;;29.30;90.30;;;;;;5037202;28;20550;-77
2021/06/27 10:33:45;;;;;;;2.17;1.98;;;29.30;90.60;;;;;;5033332;28;20191;-79
2021/06/27 10:36:12;;;;;;;1.85;1.75;;;29.20;90.80;;;;;;5033534;28;20206;-78
2021/06/27 10:38:47;;;;;;;3.05;1.83;;;29.30;88.80;;;;;;5041096;28;20206;-76
2021/06/27 10:41:12;;;;;;;2.47;2.28;;;29.10;90.30;;;;;;5040142;28;20178;-78
2021/06/27 10:44:01;;;;;;;3.33;2.20;;;28.90;91.20;;;;;;5040611;28;20669;-79
2021/06/27 10:46:40;;;;;;;2.80;2.60;;;28.80;92.40;;;;;;5042193;28;20209;-79
2021/06/27 10:49:27;;;;;;;1.90;1.80;;;29.20;91.20;;;;;;5043308;28;20190;-77
2021/06/27 10:52:05;;;;;;;1.98;1.88;;;29.20;90.40;;;;;;5038197;28;20199;-79
2021/06/27 10:54:38;;;;;;;1.90;1.80;;;29.30;90.70;;;;;;5038000;28;20752;-76
2021/06/27 10:57:05;;;;;;;1.83;1.73;;;28.70;90.70;;;;;;5041720;28;20214;-78
2021/06/27 10:59:52;;;;;;;2.45;2.25;;;28.10;91.60;;;;;;5036259;28;20283;-76
2021/06/27 11:02:21;;;;;;;1.92;1.83;;;27.60;91.80;;;;;;5037936;28;20233;-75
2021/06/27 11:04:49;;;;;;;1.95;1.80;;;27.50;91.90;;;;;;5038938;28;20233;-75
2021/06/27 11:07:47;;;;;;;2.05;1.88;;;28.00;93.00;;;;;;5037285;28;20222;-76
2021/06/27 11:10:19;;;;;;;2.10;1.90;;;28.40;91.80;;;;;;4993026;28;20198;-77
2021/06/27 11:13:07;;;;;;;1.88;1.77;;;28.50;91.40;;;;;;5036389;28;20243;-78
2021/06/27 11:15:38;;;;;;;2.10;1.90;;;28.60;91.00;;;;;;5037936;28;20186;-77
2021/06/27 11:18:10;;;;;;;2.15;1.65;;;28.90;91.10;;;;;;5038876;28;20205;-78
2021/06/27 11:20:56;;;;;;;3.33;1.83;;;29.20;90.30;;;;;;5038284;28;20181;-78
2021/06/27 11:23:46;;;;;;;2.63;2.05;;;29.30;91.90;;;;;;5024992;28;20186;-78
2021/06/27 11:26:52;;;;;;;2.13;1.92;;;29.20;90.20;;;;;;5026060;28;20233;-78
2021/06/27 11:29:21;;;;;;;1.80;1.70;;;29.20;89.20;;;;;;5036850;28;20179;-79
2021/06/27 11:31:48;;;;;;;1.73;1.63;;;29.20;91.80;;;;;;5037236;28;20217;-78
2021/06/27 11:34:28;;;;;;;1.77;1.67;;;29.30;89.90;;;;;;5036779;28;20194;-78
2021/06/27 11:37:17;;;;;;;1.55;1.45;;;29.50;90.10;;;;;;5037863;28;20224;-79
2021/06/27 11:39:56;;;;;;;1.80;1.70;;;29.80;89.80;;;;;;5035951;28;20215;-79
2021/06/27 11:42:30;;;;;;;1.80;1.70;;;29.60;88.00;;;;;;5036919;28;20186;-76
2021/06/27 11:45:08;;;;;;;1.80;1.70;;;29.40;88.40;;;;;;5043772;28;20267;-77
2021/06/27 11:47:56;;;;;;;1.65;1.55;;;29.20;89.90;;;;;;5035244;28;20203;-76
2021/06/27 11:50:26;;;;;;;1.67;1.58;;;29.40;86.80;;;;;;5038192;28;20190;-78
2021/06/27 11:53:07;;;;;;;1.80;1.70;;;29.70;87.50;;;;;;5034483;28;20209;-76
2021/06/27 11:55:38;;;;;;;1.45;1.35;;;29.60;86.70;;;;;;5036757;28;20272;-76
2021/06/27 11:58:05;;;;;;;1.90;1.80;;;29.30;87.90;;;;;;5034958;28;20202;-77
2021/06/27 12:00:37;;;;;;;1.92;1.83;;;29.20;90.00;;;;;;5038334;28;20174;-75
2021/06/27 12:03:13;;;;;;;2.55;1.80;;;29.20;89.80;;;;;;5038188;28;20182;-76
2021/06/27 12:05:40;;;;;;;1.70;1.60;;;29.00;91.10;;;;;;5034859;28;20194;-75
2021/06/27 12:08:11;;;;;;;2.53;1.85;;;28.90;90.10;;;;;;5033441;28;20241;-77
2021/06/27 12:10:38;;;;;;;1.60;1.50;;;28.60;90.20;;;;;;5028812;28;20186;-78
2021/06/27 12:13:06;;;;;;;1.42;1.33;;;28.70;91.10;;;;;;5034575;28;20254;-75
2021/06/27 12:18:12;;;;;;;1.50;1.40;;;28.80;90.30;;;;;;5016206;23;20771;-75
2021/06/27 12:20:47;;;;;;;2.00;1.80;;;28.60;90.50;;;;;;5012313;28;20223;-76
2021/06/27 12:23:19;;;;;;;1.50;1.38;;;28.20;91.20;;;;;;5005339;28;20236;-79
2021/06/27 12:25:48;;;;;;;1.40;1.30;;;28.10;90.50;;;;;;5003486;28;21039;-77
2021/06/27 12:28:17;;;;;;;1.40;1.30;;;28.40;91.50;;;;;;5014026;28;20828;-79
2021/06/27 12:30:57;;;;;;;1.60;1.50;;;29.00;91.60;;;;;;5016431;28;20194;-78
2021/06/27 12:33:28;;;;;;;1.85;1.40;;;29.40;89.50;;;;;;5018827;28;20720;-79
2021/06/27 12:36:02;;;;;;;1.70;1.60;;;29.30;90.10;;;;;;5004522;28;20273;-79
2021/06/27 12:38:29;;;;;;;1.58;1.48;;;29.70;88.40;;;;;;5016004;28;20250;-79
2021/06/27 12:40:59;;;;;;;1.40;1.27;;;30.00;84.60;;;;;;5003120;28;20188;-80
2021/06/27 12:43:43;;;;;;;1.38;1.27;;;30.20;86.90;;;;;;5015064;28;20185;-80
2021/06/27 12:46:18;;;;;;;1.52;1.40;;;29.90;87.00;;;;;;5005193;28;20229;-79
2021/06/27 12:48:46;;;;;;;1.30;1.20;;;30.20;86.30;;;;;;5015554;28;20409;-78
2021/06/27 12:51:37;;;;;;;1.35;1.25;;;30.50;84.20;;;;;;5015561;28;20191;-79
2021/06/27 12:54:07;;;;;;;1.50;1.27;;;30.50;86.60;;;;;;5024037;28;20337;-79
2021/06/27 12:57:09;;;;;;;1.55;1.45;;;30.20;84.10;;;;;;5017849;28;20218;-80